Time;durP1;ratioP1;P1;durP2;ratioP2;P2;SDS_P1;SDS_P2;PMS_P1;PMS_P2;Temp;Humidity;BMP_temperature;BMP_pressure;BME280_temperature;BME280_humidity;BME280_pressure;Samples;Min_cycle;Max_cycle;Signal;HPM_P1;HPM_P2
2022/03/13 00:01:03;;;;;;;9.70;4.82;;;;;;;;;;5101339;27;20536;-64
2022/03/13 00:03:31;;;;;;;10.43;4.93;;;;;;;;;;5109481;28;20035;-65
2022/03/13 00:05:57;;;;;;;15.07;5.75;;;;;;;;;;5110819;27;20028;-65
2022/03/13 00:08:31;;;;;;;13.50;5.40;;;;;;;;;;5110887;27;20038;-64
2022/03/13 00:11:07;;;;;;;10.65;4.80;;;;;;;;;;5107829;28;20023;-64
2022/03/13 00:13:40;;;;;;;16.20;5.88;;;;;;;;;;5106659;28;20023;-64
2022/03/13 00:16:08;;;;;;;12.32;5.75;;;;;;;;;;5110520;27;20051;-65
2022/03/13 00:18:35;;;;;;;13.45;6.38;;;;;;;;;;5110175;27;20035;-64
2022/03/13 00:21:03;;;;;;;11.55;5.53;;;;;;;;;;5109659;28;20420;-64
2022/03/13 00:23:29;;;;;;;10.45;5.65;;;;;;;;;;5110460;28;20567;-65
2022/03/13 00:25:55;;;;;;;10.38;5.18;;;;;;;;;;5110685;28;20434;-64
2022/03/13 00:28:20;;;;;;;11.07;5.60;;;;;;;;;;5097790;28;20024;-64
2022/03/13 00:30:45;;;;;;;11.82;5.40;;;;;;;;;;5110502;27;20446;-65
2022/03/13 00:33:11;;;;;;;11.88;5.05;;;;;;;;;;5110623;28;20412;-64
2022/03/13 00:35:38;;;;;;;11.88;5.38;;;;;;;;;;5107011;27;20407;-65
2022/03/13 00:38:04;;;;;;;13.27;5.38;;;;;;;;;;5114380;27;20018;-64
2022/03/13 00:40:29;;;;;;;12.93;6.63;;;;;;;;;;5107500;28;20144;-64
2022/03/13 00:42:56;;;;;;;11.88;4.45;;;;;;;;;;5102405;27;20079;-64
2022/03/13 00:45:21;;;;;;;7.75;4.10;;;;;;;;;;5110916;27;20032;-64
2022/03/13 00:47:47;;;;;;;9.82;4.50;;;;;;;;;;5110232;28;20042;-64
2022/03/13 00:50:12;;;;;;;9.13;4.65;;;;;;;;;;5109905;27;20035;-64
2022/03/13 00:52:38;;;;;;;9.30;4.07;;;;;;;;;;5110473;28;20051;-65
2022/03/13 00:55:04;;;;;;;6.47;3.42;;;;;;;;;;5105343;28;20036;-64
2022/03/13 00:57:29;;;;;;;6.35;3.90;;;;;;;;;;5091673;28;20082;-65
2022/03/13 00:59:55;;;;;;;7.60;4.22;;;;;;;;;;5111070;27;20039;-64
2022/03/13 01:02:20;;;;;;;7.97;4.45;;;;;;;;;;5108333;27;20117;-64
2022/03/13 01:04:45;;;;;;;7.45;3.25;;;;;;;;;;5096203;28;20023;-64
2022/03/13 01:07:13;;;;;;;5.47;3.30;;;;;;;;;;5107890;28;20516;-64
2022/03/13 01:09:39;;;;;;;10.85;4.38;;;;;;;;;;5100970;27;20520;-64
2022/03/13 01:12:04;;;;;;;9.50;4.72;;;;;;;;;;5091649;27;20077;-64
2022/03/13 01:14:31;;;;;;;7.97;4.88;;;;;;;;;;5094329;28;20031;-65
2022/03/13 01:17:07;;;;;;;7.60;3.65;;;;;;;;;;5093533;28;20019;-65
2022/03/13 01:19:33;;;;;;;10.57;3.33;;;;;;;;;;5110063;28;20027;-64
2022/03/13 01:21:59;;;;;;;5.93;3.25;;;;;;;;;;5094983;28;20036;-65
2022/03/13 01:24:43;;;;;;;6.72;4.03;;;;;;;;;;5104111;27;20061;-64
2022/03/13 01:27:08;;;;;;;6.40;3.25;;;;;;;;;;5099340;27;20043;-65
2022/03/13 01:29:34;;;;;;;7.80;4.00;;;;;;;;;;5101356;27;20031;-64
2022/03/13 01:32:00;;;;;;;6.57;3.80;;;;;;;;;;5101116;27;20023;-64
2022/03/13 01:34:44;;;;;;;6.88;3.47;;;;;;;;;;5109911;28;20028;-64
2022/03/13 01:37:18;;;;;;;7.85;3.65;;;;;;;;;;5111433;27;20069;-65
2022/03/13 01:39:44;;;;;;;7.72;3.90;;;;;;;;;;5112111;27;20555;-64
2022/03/13 01:42:10;;;;;;;6.45;3.22;;;;;;;;;;5105709;27;20035;-65
2022/03/13 01:44:35;;;;;;;7.28;3.88;;;;;;;;;;5108698;27;20036;-65
2022/03/13 01:47:03;;;;;;;6.80;3.65;;;;;;;;;;5109117;27;20020;-64
2022/03/13 01:49:29;;;;;;;7.43;3.53;;;;;;;;;;5099269;28;20020;-67
2022/03/13 01:51:54;;;;;;;7.05;3.20;;;;;;;;;;5088956;28;20093;-67
2022/03/13 01:54:20;;;;;;;7.32;4.10;;;;;;;;;;5090539;27;20108;-67
2022/03/13 01:56:46;;;;;;;6.72;3.90;;;;;;;;;;5110063;27;20035;-67
2022/03/13 01:59:14;;;;;;;8.63;3.85;;;;;;;;;;5103856;28;20047;-67
2022/03/13 02:01:39;;;;;;;6.13;2.92;;;;;;;;;;5108525;28;20561;-67
2022/03/13 02:04:05;;;;;;;6.82;3.45;;;;;;;;;;5108723;28;20031;-67
2022/03/13 02:06:30;;;;;;;9.73;3.83;;;;;;;;;;5108830;28;20031;-67
2022/03/13 02:08:56;;;;;;;6.28;3.75;;;;;;;;;;5110753;27;20081;-67
2022/03/13 02:11:24;;;;;;;8.75;4.40;;;;;;;;;;5109076;27;20035;-67
2022/03/13 02:13:51;;;;;;;6.03;3.70;;;;;;;;;;5108929;28;20030;-67
2022/03/13 02:16:19;;;;;;;9.27;4.85;;;;;;;;;;5108048;28;20467;-67
2022/03/13 02:18:48;;;;;;;5.85;3.28;;;;;;;;;;5108411;28;20115;-67
2022/03/13 02:21:15;;;;;;;7.57;3.75;;;;;;;;;;5108675;28;20028;-67
2022/03/13 02:23:41;;;;;;;8.18;4.05;;;;;;;;;;5108365;28;20081;-67
2022/03/13 02:26:07;;;;;;;7.25;4.13;;;;;;;;;;5112154;27;20031;-67
2022/03/13 02:28:34;;;;;;;10.15;4.50;;;;;;;;;;5108001;28;20048;-67
2022/03/13 02:31:12;;;;;;;7.18;4.15;;;;;;;;;;5110571;27;20517;-67
2022/03/13 02:33:38;;;;;;;7.82;4.75;;;;;;;;;;5108078;28;20127;-67
2022/03/13 02:36:12;;;;;;;8.75;4.50;;;;;;;;;;5108512;27;20027;-67
2022/03/13 02:38:38;;;;;;;8.52;5.07;;;;;;;;;;5086241;27;20513;-67
2022/03/13 02:41:04;;;;;;;6.03;3.63;;;;;;;;;;5071692;28;20032;-67
2022/03/13 02:43:30;;;;;;;7.53;4.05;;;;;;;;;;5107154;28;20493;-67
2022/03/13 02:45:56;;;;;;;8.73;4.50;;;;;;;;;;5070803;28;20040;-67
2022/03/13 02:48:22;;;;;;;12.63;5.47;;;;;;;;;;5087936;27;20032;-67
2022/03/13 02:50:47;;;;;;;10.43;5.07;;;;;;;;;;5096004;28;20032;-67
2022/03/13 02:53:16;;;;;;;10.65;5.57;;;;;;;;;;5118020;27;25289;-67
2022/03/13 02:55:41;;;;;;;12.55;5.80;;;;;;;;;;5111219;28;20028;-67
2022/03/13 02:58:09;;;;;;;11.98;5.68;;;;;;;;;;5113121;27;20047;-67
2022/03/13 03:00:48;;;;;;;11.95;5.38;;;;;;;;;;5107545;27;20039;-67
2022/03/13 03:03:21;;;;;;;13.77;6.40;;;;;;;;;;5108149;27;20040;-67
2022/03/13 03:05:47;;;;;;;15.73;7.22;;;;;;;;;;5108223;27;20119;-67
2022/03/13 03:08:13;;;;;;;16.05;6.35;;;;;;;;;;5111243;27;20031;-67
2022/03/13 03:10:39;;;;;;;15.05;6.53;;;;;;;;;;5097839;28;20413;-67
2022/03/13 03:13:05;;;;;;;14.80;6.50;;;;;;;;;;5108170;27;20032;-67
2022/03/13 03:15:32;;;;;;;13.50;5.90;;;;;;;;;;5107910;27;20483;-67
2022/03/13 03:17:57;;;;;;;13.82;6.53;;;;;;;;;;5119385;27;20031;-67
2022/03/13 03:20:23;;;;;;;13.07;5.65;;;;;;;;;;5114633;27;20901;-67
2022/03/13 03:22:51;;;;;;;10.43;5.35;;;;;;;;;;5103965;28;20420;-67
2022/03/13 03:25:22;;;;;;;11.43;4.97;;;;;;;;;;5108771;28;20504;-67
2022/03/13 03:27:47;;;;;;;9.57;4.93;;;;;;;;;;5094927;28;20043;-67
2022/03/13 03:30:13;;;;;;;8.48;4.93;;;;;;;;;;5107634;28;20091;-67
2022/03/13 03:32:38;;;;;;;10.65;5.38;;;;;;;;;;5102956;27;20472;-67
2022/03/13 03:35:04;;;;;;;10.32;5.28;;;;;;;;;;5093897;27;20370;-67
2022/03/13 03:37:33;;;;;;;9.68;4.50;;;;;;;;;;5124113;27;20026;-67
2022/03/13 03:39:58;;;;;;;7.80;4.13;;;;;;;;;;5119930;27;20031;-67
2022/03/13 03:42:24;;;;;;;12.57;5.35;;;;;;;;;;5110201;27;20431;-67
2022/03/13 03:44:49;;;;;;;11.23;5.03;;;;;;;;;;5103071;28;20126;-67
2022/03/13 03:47:15;;;;;;;10.07;4.72;;;;;;;;;;5105183;27;20039;-67
2022/03/13 03:49:40;;;;;;;9.52;4.90;;;;;;;;;;5107951;27;20024;-66
2022/03/13 03:52:06;;;;;;;5.72;3.55;;;;;;;;;;5109907;28;20039;-67
2022/03/13 03:54:32;;;;;;;8.80;4.55;;;;;;;;;;5115969;27;20043;-67
2022/03/13 03:56:58;;;;;;;9.80;5.18;;;;;;;;;;5100715;27;20048;-67
2022/03/13 03:59:23;;;;;;;8.80;4.70;;;;;;;;;;5108661;28;20040;-67
2022/03/13 04:01:49;;;;;;;10.18;4.60;;;;;;;;;;5091415;28;20042;-67
2022/03/13 04:04:16;;;;;;;10.88;5.45;;;;;;;;;;5095635;27;20028;-67
2022/03/13 04:06:41;;;;;;;10.73;5.00;;;;;;;;;;5109692;27;20111;-67
2022/03/13 04:09:08;;;;;;;11.00;5.32;;;;;;;;;;5110871;27;20062;-67
2022/03/13 04:11:34;;;;;;;10.43;5.35;;;;;;;;;;5111099;28;20056;-67
2022/03/13 04:14:00;;;;;;;12.52;6.05;;;;;;;;;;5111349;28;20032;-67
2022/03/13 04:16:26;;;;;;;9.98;5.53;;;;;;;;;;5097091;27;20026;-67
2022/03/13 04:18:51;;;;;;;9.73;5.43;;;;;;;;;;5114529;27;20476;-67
2022/03/13 04:21:17;;;;;;;10.32;5.40;;;;;;;;;;5104225;28;20048;-67
2022/03/13 04:23:43;;;;;;;10.50;5.68;;;;;;;;;;5110898;27;20092;-67
2022/03/13 04:26:09;;;;;;;10.80;6.22;;;;;;;;;;5110007;28;20055;-67
2022/03/13 04:28:34;;;;;;;12.55;6.13;;;;;;;;;;5112826;27;20034;-66
2022/03/13 04:31:00;;;;;;;8.63;4.50;;;;;;;;;;5106427;27;20148;-67
2022/03/13 04:33:31;;;;;;;12.20;5.88;;;;;;;;;;5106200;27;20043;-67
2022/03/13 04:36:00;;;;;;;9.25;4.88;;;;;;;;;;5099803;27;20054;-67
2022/03/13 04:38:27;;;;;;;11.68;4.88;;;;;;;;;;5109603;27;20038;-67
2022/03/13 04:40:54;;;;;;;12.35;5.47;;;;;;;;;;5116439;27;20578;-67
2022/03/13 04:43:20;;;;;;;12.52;5.63;;;;;;;;;;5105769;28;20100;-67
2022/03/13 04:45:46;;;;;;;10.90;5.47;;;;;;;;;;5110457;28;20058;-67
2022/03/13 04:48:12;;;;;;;11.15;6.05;;;;;;;;;;5112265;27;20491;-67
2022/03/13 04:50:37;;;;;;;11.43;5.75;;;;;;;;;;5110910;27;20047;-67
2022/03/13 04:53:03;;;;;;;12.50;5.75;;;;;;;;;;5105538;28;20038;-67
2022/03/13 04:55:29;;;;;;;12.95;6.22;;;;;;;;;;5094426;28;20032;-67
2022/03/13 04:57:54;;;;;;;11.30;5.60;;;;;;;;;;5110145;28;20424;-67
2022/03/13 05:00:19;;;;;;;10.30;5.28;;;;;;;;;;5106774;28;20051;-67
2022/03/13 05:02:45;;;;;;;12.32;6.05;;;;;;;;;;5110233;28;20104;-67
2022/03/13 05:05:10;;;;;;;11.65;5.22;;;;;;;;;;5111489;27;20479;-67
2022/03/13 05:07:38;;;;;;;12.50;5.20;;;;;;;;;;5105874;27;20035;-66
2022/03/13 05:10:05;;;;;;;11.93;6.18;;;;;;;;;;5109726;27;20038;-67
2022/03/13 05:12:30;;;;;;;12.80;6.60;;;;;;;;;;5109761;27;20040;-67
2022/03/13 05:14:56;;;;;;;12.38;6.00;;;;;;;;;;5110317;27;20092;-66
2022/03/13 05:17:22;;;;;;;12.98;5.43;;;;;;;;;;5109920;27;20520;-67
2022/03/13 05:19:48;;;;;;;14.38;6.32;;;;;;;;;;5114125;27;20036;-67
2022/03/13 05:22:13;;;;;;;11.60;6.22;;;;;;;;;;5123250;27;20043;-67
2022/03/13 05:24:38;;;;;;;14.07;6.50;;;;;;;;;;5099642;27;20036;-67
2022/03/13 05:27:04;;;;;;;12.05;6.03;;;;;;;;;;5109318;27;20107;-67
2022/03/13 05:29:29;;;;;;;12.63;6.38;;;;;;;;;;5109528;27;20040;-67
2022/03/13 05:31:54;;;;;;;15.07;6.93;;;;;;;;;;5109549;27;20023;-67
2022/03/13 05:34:19;;;;;;;17.02;6.90;;;;;;;;;;5109986;28;20022;-67
2022/03/13 05:36:46;;;;;;;12.38;5.63;;;;;;;;;;5110078;27;20038;-67
2022/03/13 05:39:12;;;;;;;13.25;6.10;;;;;;;;;;5115303;27;20424;-67
2022/03/13 05:41:39;;;;;;;14.23;5.78;;;;;;;;;;5105062;27;20730;-67
2022/03/13 05:44:07;;;;;;;12.05;5.93;;;;;;;;;;5103849;27;20024;-67
2022/03/13 05:46:34;;;;;;;15.43;7.30;;;;;;;;;;5103707;28;20073;-67
2022/03/13 05:48:59;;;;;;;10.18;5.35;;;;;;;;;;5096624;27;20085;-67
2022/03/13 05:51:25;;;;;;;11.15;5.43;;;;;;;;;;5109827;27;20039;-67
2022/03/13 05:53:51;;;;;;;16.67;8.00;;;;;;;;;;5108965;27;20719;-67
2022/03/13 05:56:16;;;;;;;12.30;5.85;;;;;;;;;;5093794;28;20056;-67
2022/03/13 05:58:42;;;;;;;13.55;6.38;;;;;;;;;;5088776;28;20050;-67
2022/03/13 06:01:08;;;;;;;14.02;7.47;;;;;;;;;;5104503;28;20027;-67
2022/03/13 06:03:34;;;;;;;15.10;7.28;;;;;;;;;;5097089;27;20400;-67
2022/03/13 06:06:03;;;;;;;18.55;8.75;;;;;;;;;;5087974;28;20033;-67
2022/03/13 06:08:29;;;;;;;11.35;5.40;;;;;;;;;;5078189;28;20063;-67
2022/03/13 06:10:55;;;;;;;13.73;6.70;;;;;;;;;;5064361;28;20052;-67
2022/03/13 06:13:22;;;;;;;12.05;6.72;;;;;;;;;;5068423;28;20456;-67
2022/03/13 06:15:48;;;;;;;14.52;6.65;;;;;;;;;;5097466;27;20032;-67
2022/03/13 06:18:13;;;;;;;15.13;7.38;;;;;;;;;;5097429;28;20508;-67
2022/03/13 06:20:39;;;;;;;16.83;7.65;;;;;;;;;;5088568;28;20032;-67
2022/03/13 06:23:04;;;;;;;16.73;7.57;;;;;;;;;;5088099;27;20058;-67
2022/03/13 06:25:30;;;;;;;17.27;7.43;;;;;;;;;;5104854;28;20385;-67
2022/03/13 06:27:56;;;;;;;15.23;7.45;;;;;;;;;;5081884;27;20037;-67
2022/03/13 06:30:22;;;;;;;16.75;6.93;;;;;;;;;;5067991;28;20024;-67
2022/03/13 06:32:52;;;;;;;16.33;7.35;;;;;;;;;;5078129;28;20098;-67
2022/03/13 06:35:19;;;;;;;16.20;8.63;;;;;;;;;;5088205;28;20047;-67
2022/03/13 06:37:45;;;;;;;16.17;7.30;;;;;;;;;;5107169;28;20023;-67
2022/03/13 06:40:12;;;;;;;18.67;8.65;;;;;;;;;;5107612;27;20035;-67
2022/03/13 06:42:39;;;;;;;15.82;8.13;;;;;;;;;;5123267;27;20088;-67
2022/03/13 06:45:06;;;;;;;19.35;7.68;;;;;;;;;;5111185;27;20031;-67
2022/03/13 06:47:32;;;;;;;15.35;7.95;;;;;;;;;;5101675;28;20028;-67
2022/03/13 06:49:57;;;;;;;17.65;7.68;;;;;;;;;;5102498;27;20172;-67
2022/03/13 06:52:22;;;;;;;16.13;7.60;;;;;;;;;;5107267;28;20027;-67
2022/03/13 06:54:48;;;;;;;17.48;9.38;;;;;;;;;;5105524;27;20450;-67
2022/03/13 06:57:15;;;;;;;17.02;7.60;;;;;;;;;;5087510;28;20107;-67
2022/03/13 06:59:42;;;;;;;17.50;8.27;;;;;;;;;;5097915;27;20511;-67
2022/03/13 07:02:08;;;;;;;18.20;9.07;;;;;;;;;;5101850;28;20024;-69
2022/03/13 07:04:33;;;;;;;19.52;8.80;;;;;;;;;;5106547;28;20023;-72
2022/03/13 07:06:59;;;;;;;18.13;9.02;;;;;;;;;;5107436;28;20034;-72
2022/03/13 07:09:26;;;;;;;21.15;9.75;;;;;;;;;;5111098;27;20412;-72
2022/03/13 07:11:51;;;;;;;20.85;9.02;;;;;;;;;;5102037;28;20071;-72
2022/03/13 07:14:17;;;;;;;19.83;9.82;;;;;;;;;;5091337;28;20057;-72
2022/03/13 07:16:42;;;;;;;16.02;7.97;;;;;;;;;;5092229;28;20028;-72
2022/03/13 07:19:07;;;;;;;17.05;8.20;;;;;;;;;;5090567;28;20032;-72
2022/03/13 07:21:33;;;;;;;18.40;8.93;;;;;;;;;;5087287;28;20044;-72
2022/03/13 07:23:58;;;;;;;18.15;8.45;;;;;;;;;;5087784;28;20052;-72
2022/03/13 07:26:23;;;;;;;16.40;8.02;;;;;;;;;;5095377;27;20080;-72
2022/03/13 07:28:49;;;;;;;17.50;8.00;;;;;;;;;;5112362;27;20106;-72
2022/03/13 07:31:14;;;;;;;13.15;6.57;;;;;;;;;;5112492;27;20058;-72
2022/03/13 07:33:39;;;;;;;16.30;7.45;;;;;;;;;;5111933;27;20484;-72
2022/03/13 07:36:05;;;;;;;19.08;8.90;;;;;;;;;;5113464;27;20066;-72
2022/03/13 07:38:30;;;;;;;15.75;7.55;;;;;;;;;;5109530;27;20024;-72
2022/03/13 07:40:56;;;;;;;14.32;7.75;;;;;;;;;;5108626;27;20718;-72
2022/03/13 07:43:21;;;;;;;18.05;9.38;;;;;;;;;;5104470;27;20051;-72
2022/03/13 07:45:46;;;;;;;19.77;8.32;;;;;;;;;;5109286;27;20043;-72
2022/03/13 07:48:12;;;;;;;19.58;8.32;;;;;;;;;;5111915;27;20066;-72
2022/03/13 07:50:37;;;;;;;12.40;5.93;;;;;;;;;;5109327;27;20093;-72
2022/03/13 07:53:03;;;;;;;17.80;7.15;;;;;;;;;;5099397;27;20057;-72
2022/03/13 07:55:29;;;;;;;13.70;5.63;;;;;;;;;;5101917;28;20519;-74
2022/03/13 07:57:54;;;;;;;18.20;8.63;;;;;;;;;;5089154;28;20028;-73
2022/03/13 08:00:22;;;;;;;18.92;7.40;;;;;;;;;;5105367;27;20031;-73
2022/03/13 08:02:48;;;;;;;11.30;6.20;;;;;;;;;;5108438;28;20047;-74
2022/03/13 08:05:15;;;;;;;10.63;5.47;;;;;;;;;;5105792;27;20105;-73
2022/03/13 08:07:40;;;;;;;14.13;7.70;;;;;;;;;;5101066;27;20348;-73
2022/03/13 08:10:06;;;;;;;18.58;6.45;;;;;;;;;;5101372;27;20027;-73
2022/03/13 08:12:31;;;;;;;13.00;6.32;;;;;;;;;;5103709;27;20042;-73
2022/03/13 08:14:56;;;;;;;17.08;7.05;;;;;;;;;;5105375;27;20456;-73
2022/03/13 08:17:22;;;;;;;11.32;4.93;;;;;;;;;;5108456;27;20032;-73
2022/03/13 08:19:47;;;;;;;15.25;6.60;;;;;;;;;;5107549;27;20477;-73
2022/03/13 08:22:13;;;;;;;11.88;5.90;;;;;;;;;;5110182;28;20122;-73
2022/03/13 08:24:38;;;;;;;14.40;6.80;;;;;;;;;;5104441;28;20437;-73
2022/03/13 08:27:03;;;;;;;15.43;6.38;;;;;;;;;;5106268;27;20028;-73
2022/03/13 08:29:29;;;;;;;15.00;6.93;;;;;;;;;;5097011;27;20033;-73
2022/03/13 08:31:55;;;;;;;15.30;7.18;;;;;;;;;;5103421;27;20110;-73
2022/03/13 08:34:20;;;;;;;13.52;6.95;;;;;;;;;;5107210;27;20015;-73
2022/03/13 08:36:49;;;;;;;10.90;5.60;;;;;;;;;;5107273;28;20032;-73
2022/03/13 08:39:14;;;;;;;13.23;6.05;;;;;;;;;;5103417;27;20032;-73
2022/03/13 08:41:41;;;;;;;9.93;5.05;;;;;;;;;;5105142;27;20042;-74
2022/03/13 08:44:08;;;;;;;13.82;6.40;;;;;;;;;;5107303;27;21004;-73
2022/03/13 08:46:33;;;;;;;13.40;5.50;;;;;;;;;;5087695;28;20699;-73
2022/03/13 08:48:59;;;;;;;14.57;5.45;;;;;;;;;;5088791;28;20035;-74
2022/03/13 08:51:24;;;;;;;13.73;5.38;;;;;;;;;;5093955;28;20485;-73
2022/03/13 08:53:50;;;;;;;9.70;5.28;;;;;;;;;;5105119;27;20069;-73
2022/03/13 08:56:16;;;;;;;12.60;4.97;;;;;;;;;;5104231;27;20044;-73
2022/03/13 08:58:42;;;;;;;13.32;5.32;;;;;;;;;;5107181;28;20058;-73
2022/03/13 09:01:09;;;;;;;13.48;5.95;;;;;;;;;;5101213;27;20421;-73
2022/03/13 09:03:34;;;;;;;9.50;5.00;;;;;;;;;;5105105;28;20032;-73
2022/03/13 09:05:59;;;;;;;11.32;5.57;;;;;;;;;;5103508;27;20053;-73
2022/03/13 09:08:25;;;;;;;12.02;5.78;;;;;;;;;;5088889;28;20452;-73
2022/03/13 09:10:52;;;;;;;10.23;5.30;;;;;;;;;;5101224;28;20053;-73
2022/03/13 09:13:21;;;;;;;13.50;6.60;;;;;;;;;;5104440;28;20036;-74
2022/03/13 09:15:47;;;;;;;11.57;5.35;;;;;;;;;;5106539;27;20039;-73
2022/03/13 09:18:13;;;;;;;10.98;4.95;;;;;;;;;;5099598;28;20036;-73
2022/03/13 09:20:38;;;;;;;8.77;4.70;;;;;;;;;;5108104;27;20041;-73
2022/03/13 09:23:04;;;;;;;8.50;4.50;;;;;;;;;;5092630;28;20024;-73
2022/03/13 09:25:31;;;;;;;6.25;3.83;;;;;;;;;;5089689;28;20028;-75
2022/03/13 09:27:56;;;;;;;6.82;3.78;;;;;;;;;;5088700;28;20047;-73
2022/03/13 09:30:21;;;;;;;7.57;3.45;;;;;;;;;;5106082;27;20036;-73
2022/03/13 09:32:48;;;;;;;8.13;3.83;;;;;;;;;;5101315;28;20031;-73
2022/03/13 09:35:14;;;;;;;6.88;3.45;;;;;;;;;;5107058;27;20454;-73
2022/03/13 09:37:40;;;;;;;7.22;3.72;;;;;;;;;;5095432;28;20628;-73
2022/03/13 09:40:08;;;;;;;7.53;3.80;;;;;;;;;;5104987;27;20513;-73
2022/03/13 09:42:34;;;;;;;6.47;3.53;;;;;;;;;;5099455;27;20038;-72
2022/03/13 09:44:59;;;;;;;6.72;4.10;;;;;;;;;;5101272;28;20031;-73
2022/03/13 09:47:27;;;;;;;9.80;4.13;;;;;;;;;;5097562;28;20031;-73
2022/03/13 09:49:53;;;;;;;8.77;3.90;;;;;;;;;;5100497;28;20024;-73
2022/03/13 09:52:18;;;;;;;7.18;4.10;;;;;;;;;;5101009;28;20043;-73
2022/03/13 09:54:43;;;;;;;7.40;3.72;;;;;;;;;;5099257;27;20044;-73
2022/03/13 09:57:09;;;;;;;7.55;4.25;;;;;;;;;;5101614;28;20539;-73
2022/03/13 09:59:34;;;;;;;7.55;4.07;;;;;;;;;;5083222;28;20723;-73
2022/03/13 10:02:04;;;;;;;9.20;4.30;;;;;;;;;;5103328;27;20032;-73
2022/03/13 10:04:29;;;;;;;8.55;4.43;;;;;;;;;;5090589;28;20031;-73
2022/03/13 10:07:11;;;;;;;7.38;4.43;;;;;;;;;;5100543;28;20039;-74
2022/03/13 10:09:38;;;;;;;6.93;3.95;;;;;;;;;;5099196;27;20169;-73
2022/03/13 10:12:11;;;;;;;7.32;3.80;;;;;;;;;;5098372;28;20132;-73
2022/03/13 10:14:39;;;;;;;6.80;3.80;;;;;;;;;;5096107;28;20032;-73
2022/03/13 10:17:25;;;;;;;7.43;3.70;;;;;;;;;;5091861;28;20269;-73
2022/03/13 10:19:51;;;;;;;6.57;2.95;;;;;;;;;;5097415;28;20093;-73
2022/03/13 10:22:16;;;;;;;6.85;2.92;;;;;;;;;;5099247;27;20032;-73
2022/03/13 10:24:44;;;;;;;6.57;4.00;;;;;;;;;;5104791;28;20039;-73
2022/03/13 10:27:10;;;;;;;4.70;3.17;;;;;;;;;;5105695;27;20027;-72
2022/03/13 10:29:36;;;;;;;4.13;1.98;;;;;;;;;;5105230;28;20081;-72
2022/03/13 10:32:02;;;;;;;5.13;3.25;;;;;;;;;;5105340;27;20027;-71
2022/03/13 10:34:27;;;;;;;5.43;3.10;;;;;;;;;;5098996;28;20024;-72
2022/03/13 10:36:52;;;;;;;6.80;3.63;;;;;;;;;;5101759;27;20035;-72
2022/03/13 10:39:20;;;;;;;7.00;3.67;;;;;;;;;;5104681;27;20039;-72
2022/03/13 10:41:53;;;;;;;8.25;3.70;;;;;;;;;;5104712;27;20027;-71
2022/03/13 10:44:22;;;;;;;7.80;4.18;;;;;;;;;;5112102;28;20028;-72
2022/03/13 10:46:56;;;;;;;5.80;3.20;;;;;;;;;;5103080;28;20072;-72
2022/03/13 10:49:40;;;;;;;4.95;3.13;;;;;;;;;;5098148;28;20070;-72
2022/03/13 10:52:22;;;;;;;5.45;3.28;;;;;;;;;;5100966;27;20027;-72
2022/03/13 10:54:49;;;;;;;7.07;3.53;;;;;;;;;;5095110;28;20059;-72
2022/03/13 10:57:14;;;;;;;6.13;3.60;;;;;;;;;;5083294;28;20032;-72
2022/03/13 10:59:41;;;;;;;5.80;3.45;;;;;;;;;;5098096;27;20522;-72
2022/03/13 11:02:17;;;;;;;6.10;3.50;;;;;;;;;;5098403;27;20102;-72
2022/03/13 11:04:51;;;;;;;7.15;3.80;;;;;;;;;;5097088;28;20026;-72
2022/03/13 11:07:18;;;;;;;7.00;3.53;;;;;;;;;;5093477;27;20038;-72
2022/03/13 11:09:44;;;;;;;6.30;3.67;;;;;;;;;;5094890;27;20110;-72
2022/03/13 11:12:15;;;;;;;5.28;3.40;;;;;;;;;;5098912;28;20100;-72
2022/03/13 11:14:42;;;;;;;7.82;4.28;;;;;;;;;;5099365;27;20098;-72
2022/03/13 11:17:09;;;;;;;6.05;3.85;;;;;;;;;;5097043;27;20019;-72
2022/03/13 11:19:35;;;;;;;6.57;3.33;;;;;;;;;;5098356;28;20032;-72
2022/03/13 11:22:02;;;;;;;6.95;3.75;;;;;;;;;;5095975;27;20039;-72
2022/03/13 11:24:28;;;;;;;5.85;3.88;;;;;;;;;;5102242;28;20076;-72
2022/03/13 11:26:54;;;;;;;7.50;4.50;;;;;;;;;;5102348;27;20036;-72
2022/03/13 11:29:42;;;;;;;7.43;3.85;;;;;;;;;;5103291;28;20084;-72
2022/03/13 11:32:46;;;;;;;7.60;4.50;;;;;;;;;;5101240;27;20061;-72
2022/03/13 11:35:15;;;;;;;;;;;;;;;;;;5097848;27;20431;-72
2022/03/13 11:37:43;;;;;;;9.20;3.47;;;;;;;;;;5101748;28;20464;-72
2022/03/13 11:40:11;;;;;;;6.60;3.67;;;;;;;;;;5092605;28;20039;-72
2022/03/13 11:42:51;;;;;;;6.05;3.67;;;;;;;;;;5093045;27;20118;-72
2022/03/13 11:45:35;;;;;;;8.18;3.80;;;;;;;;;;5094646;28;20434;-72
2022/03/13 11:48:19;;;;;;;12.95;5.82;;;;;;;;;;5101772;27;20032;-72
2022/03/13 11:51:00;;;;;;;7.05;4.07;;;;;;;;;;5085828;28;20048;-72
2022/03/13 11:53:40;;;;;;;7.22;4.45;;;;;;;;;;5084752;28;20071;-72
2022/03/13 11:56:07;;;;;;;7.13;3.97;;;;;;;;;;5095822;27;20115;-72
2022/03/13 11:58:41;;;;;;;7.97;4.05;;;;;;;;;;5107762;27;20054;-72
2022/03/13 12:01:14;;;;;;;7.43;4.38;;;;;;;;;;5096168;28;20050;-72
2022/03/13 12:04:14;;;;;;;7.45;4.15;;;;;;;;;;5087167;28;20121;-72
2022/03/13 12:06:43;;;;;;;8.02;4.05;;;;;;;;;;5088713;28;20096;-72
2022/03/13 12:09:19;;;;;;;10.25;4.47;;;;;;;;;;5093747;28;20085;-72
2022/03/13 12:11:47;;;;;;;12.27;5.53;;;;;;;;;;5104827;27;20856;-72
2022/03/13 12:14:17;;;;;;;10.00;5.28;;;;;;;;;;5105625;27;20040;-72
2022/03/13 12:16:44;;;;;;;11.18;5.78;;;;;;;;;;5104889;28;20496;-72
2022/03/13 12:19:10;;;;;;;10.30;5.20;;;;;;;;;;5098709;27;20107;-72
2022/03/13 12:21:37;;;;;;;11.07;5.20;;;;;;;;;;5095752;27;20039;-72
2022/03/13 12:24:17;;;;;;;9.77;5.38;;;;;;;;;;5095674;27;20039;-72
2022/03/13 12:26:46;;;;;;;9.40;4.85;;;;;;;;;;5070994;28;20533;-72
2022/03/13 12:29:15;;;;;;;11.23;5.28;;;;;;;;;;5080931;28;20035;-72
2022/03/13 12:31:45;;;;;;;7.68;4.45;;;;;;;;;;5082394;28;20050;-72
2022/03/13 12:34:10;;;;;;;7.32;3.72;;;;;;;;;;5086767;28;20032;-72
2022/03/13 12:36:38;;;;;;;5.13;3.28;;;;;;;;;;5085904;28;20424;-72
2022/03/13 12:39:14;;;;;;;5.13;3.35;;;;;;;;;;5083386;28;20040;-72
2022/03/13 12:41:44;;;;;;;6.32;4.00;;;;;;;;;;5074883;28;20572;-72
2022/03/13 12:44:15;;;;;;;4.30;2.28;;;;;;;;;;5085020;27;20084;-72
2022/03/13 12:46:41;;;;;;;3.45;2.10;;;;;;;;;;5075673;28;20055;-71
2022/03/13 12:49:09;;;;;;;4.10;2.80;;;;;;;;;;5103787;28;20867;-72
2022/03/13 12:51:41;;;;;;;5.53;3.25;;;;;;;;;;5094505;27;20032;-72
2022/03/13 12:54:09;;;;;;;3.90;2.33;;;;;;;;;;5093542;27;21224;-72
2022/03/13 12:56:42;;;;;;;5.30;3.17;;;;;;;;;;5092441;28;20050;-72
2022/03/13 12:59:07;;;;;;;4.68;2.72;;;;;;;;;;5106569;27;20043;-72
2022/03/13 13:01:33;;;;;;;5.70;3.55;;;;;;;;;;5101218;27;20420;-72
2022/03/13 13:03:59;;;;;;;5.90;3.42;;;;;;;;;;5092630;27;20092;-72
2022/03/13 13:06:34;;;;;;;6.38;3.30;;;;;;;;;;5099651;28;20044;-72
2022/03/13 13:08:59;;;;;;;4.35;2.88;;;;;;;;;;5103506;27;20124;-72
2022/03/13 13:11:37;;;;;;;6.78;4.57;;;;;;;;;;5106417;28;20566;-72
2022/03/13 13:14:03;;;;;;;7.07;3.50;;;;;;;;;;5070960;28;20043;-72
2022/03/13 13:16:32;;;;;;;4.88;3.10;;;;;;;;;;5086740;28;20029;-69
2022/03/13 13:18:58;;;;;;;5.80;3.40;;;;;;;;;;5070849;28;20043;-69
2022/03/13 13:21:40;;;;;;;5.45;3.15;;;;;;;;;;5067435;28;20082;-69
2022/03/13 13:24:23;;;;;;;5.28;3.58;;;;;;;;;;5077000;28;20052;-69
2022/03/13 13:26:48;;;;;;;5.75;3.33;;;;;;;;;;5068170;28;20523;-69
2022/03/13 13:29:14;;;;;;;5.82;3.03;;;;;;;;;;5085786;28;20036;-69
2022/03/13 13:31:39;;;;;;;5.80;3.17;;;;;;;;;;5088425;28;20493;-69
2022/03/13 13:34:15;;;;;;;6.40;3.47;;;;;;;;;;5080400;28;20117;-69
2022/03/13 13:36:42;;;;;;;5.95;3.83;;;;;;;;;;5095109;27;20040;-69
2022/03/13 13:39:07;;;;;;;5.65;2.85;;;;;;;;;;5103310;27;20578;-69
2022/03/13 13:41:36;;;;;;;5.82;3.85;;;;;;;;;;5099355;28;20035;-69
2022/03/13 13:44:03;;;;;;;5.53;3.05;;;;;;;;;;5106752;27;20076;-69
2022/03/13 13:46:32;;;;;;;5.75;3.53;;;;;;;;;;5104635;28;20020;-69
2022/03/13 13:48:58;;;;;;;6.88;3.78;;;;;;;;;;5109219;27;20063;-76
2022/03/13 13:51:34;;;;;;;9.57;5.07;;;;;;;;;;5100439;27;20433;-70
2022/03/13 13:54:14;;;;;;;8.75;4.97;;;;;;;;;;5097190;27;20086;-71
2022/03/13 13:56:52;;;;;;;5.55;3.25;;;;;;;;;;5092054;28;20408;-68
2022/03/13 13:59:28;;;;;;;6.35;3.10;;;;;;;;;;5097770;27;20508;-69
2022/03/13 14:02:19;;;;;;;5.00;3.33;;;;;;;;;;5095655;27;20124;-68
2022/03/13 14:04:52;;;;;;;6.43;3.58;;;;;;;;;;5088778;27;20048;-68
2022/03/13 14:07:19;;;;;;;6.55;3.92;;;;;;;;;;5087969;28;20064;-70
2022/03/13 14:09:44;;;;;;;4.03;2.65;;;;;;;;;;5100016;27;20088;-70
2022/03/13 14:12:12;;;;;;;5.13;3.20;;;;;;;;;;5100802;27;20781;-73
2022/03/13 14:14:37;;;;;;;5.40;2.70;;;;;;;;;;5093966;28;20408;-70
2022/03/13 14:17:03;;;;;;;3.63;2.78;;;;;;;;;;5099311;27;20523;-71
2022/03/13 14:19:30;;;;;;;5.78;3.13;;;;;;;;;;5102783;27;20038;-72
2022/03/13 14:21:56;;;;;;;5.65;3.60;;;;;;;;;;5100064;28;20520;-73
2022/03/13 14:24:21;;;;;;;4.40;2.83;;;;;;;;;;5094127;27;20043;-75
2022/03/13 14:26:50;;;;;;;4.60;3.15;;;;;;;;;;5102196;27;20050;-73
2022/03/13 14:29:17;;;;;;;4.22;2.75;;;;;;;;;;5097526;28;20043;-72
2022/03/13 14:31:43;;;;;;;8.80;3.75;;;;;;;;;;5105935;27;20087;-71
2022/03/13 14:34:08;;;;;;;11.48;7.18;;;;;;;;;;5106415;27;20040;-71
2022/03/13 14:36:34;;;;;;;7.50;5.35;;;;;;;;;;5095572;28;20051;-72
2022/03/13 14:39:00;;;;;;;4.05;2.55;;;;;;;;;;5101215;27;20421;-71